createdAt,value
2022-12-03T00:02:55.684Z,10.77
2022-12-03T00:06:57.525Z,12.13
2022-12-03T00:10:59.381Z,16.48
2022-12-03T00:15:01.666Z,19.00
2022-12-03T00:19:04.989Z,13.52
2022-12-03T00:23:06.819Z,9.63
2022-12-03T00:27:08.503Z,14.57
2022-12-03T00:31:10.313Z,13.35
2022-12-03T00:35:12.138Z,9.15
2022-12-03T00:39:13.858Z,24.20
2022-12-03T00:43:15.796Z,22.52
2022-12-03T00:47:17.612Z,16.52
2022-12-03T00:51:19.432Z,15.82
2022-12-03T00:55:21.680Z,13.55
2022-12-03T00:59:23.457Z,21.77
2022-12-03T01:03:25.819Z,17.30
2022-12-03T01:07:28.683Z,12.75
2022-12-03T01:11:39.513Z,10.32
2022-12-03T01:15:41.823Z,11.77
2022-12-03T01:19:48.204Z,10.02
2022-12-03T01:23:50.422Z,10.23
2022-12-03T01:27:52.167Z,10.20
2022-12-03T01:32:12.812Z,13.48
2022-12-03T01:36:14.705Z,19.00
2022-12-03T01:40:20.500Z,21.23
2022-12-03T01:44:28.216Z,19.67
2022-12-03T01:48:35.387Z,20.23
2022-12-03T01:52:39.743Z,17.40
2022-12-03T01:56:41.502Z,16.27
2022-12-03T02:00:43.223Z,16.10
2022-12-03T02:04:45.093Z,16.23
2022-12-03T02:08:48.048Z,19.73
2022-12-03T02:13:19.056Z,14.88
2022-12-03T02:17:20.954Z,17.20
2022-12-03T02:21:44.819Z,14.00
2022-12-03T02:25:47.081Z,18.08
2022-12-03T02:29:49.330Z,13.00
2022-12-03T02:33:51.298Z,13.73
2022-12-03T02:38:08.251Z,18.35
2022-12-03T02:42:29.280Z,15.27
2022-12-03T02:46:31.335Z,20.55
2022-12-03T02:50:36.136Z,20.40
2022-12-03T02:54:38.338Z,20.30
2022-12-03T02:58:42.260Z,19.52
2022-12-03T03:02:46.275Z,16.63
2022-12-03T03:06:48.181Z,15.18
2022-12-03T03:10:50.353Z,11.73
2022-12-03T03:14:52.950Z,19.85
2022-12-03T03:18:55.067Z,14.13
2022-12-03T03:23:13.542Z,19.92
2022-12-03T03:27:15.296Z,16.95
2022-12-03T03:31:21.449Z,16.50
2022-12-03T03:35:24.998Z,14.53
2022-12-03T03:39:26.875Z,10.57
2022-12-03T03:43:30.686Z,17.25
2022-12-03T03:47:32.776Z,11.02
2022-12-03T03:51:37.121Z,9.05
2022-12-03T03:55:39.797Z,13.82
2022-12-03T03:59:41.790Z,17.25
2022-12-03T04:03:43.681Z,18.83
2022-12-03T04:07:45.855Z,14.43
2022-12-03T04:12:06.355Z,12.85
2022-12-03T04:16:08.415Z,9.50
2022-12-03T04:20:11.136Z,12.70
2022-12-03T04:24:13.029Z,13.93
2022-12-03T04:28:33.470Z,12.38
2022-12-03T04:32:53.685Z,9.05
2022-12-03T04:36:55.579Z,11.85
2022-12-03T04:41:01.312Z,10.65
2022-12-03T04:45:03.090Z,11.73
2022-12-03T04:49:04.847Z,10.23
2022-12-03T04:53:06.639Z,9.27
2022-12-03T04:57:09.432Z,9.90
2022-12-03T05:01:11.246Z,11.07
2022-12-03T05:05:13.195Z,12.75
2022-12-03T05:09:15.593Z,12.52
2022-12-03T05:13:17.372Z,11.70
2022-12-03T05:17:19.103Z,10.27
2022-12-03T05:21:20.986Z,12.02
2022-12-03T05:25:22.764Z,16.45
2022-12-03T05:29:24.563Z,16.88
2022-12-03T05:33:26.330Z,11.38
2022-12-03T05:37:28.093Z,8.93
2022-12-03T05:42:08.076Z,11.90
2022-12-03T05:46:09.923Z,12.85
2022-12-03T05:50:12.127Z,11.32
2022-12-03T05:54:13.875Z,16.35
2022-12-03T05:58:15.630Z,14.23
2022-12-03T06:02:17.431Z,16.73
2022-12-03T06:06:19.267Z,13.25
2022-12-03T06:10:24.105Z,13.80
2022-12-03T06:14:25.870Z,14.48
2022-12-03T06:18:27.590Z,16.00
2022-12-03T06:22:29.465Z,19.38
2022-12-03T06:26:31.207Z,13.10
2022-12-03T06:30:34.311Z,11.52
2022-12-03T06:34:36.206Z,14.10
2022-12-03T06:38:38.115Z,11.23
2022-12-03T06:42:39.925Z,8.88
2022-12-03T06:46:42.211Z,11.70
2022-12-03T06:50:44.026Z,13.48
2022-12-03T06:54:45.928Z,10.38
2022-12-03T06:58:47.772Z,8.13
2022-12-03T07:02:49.733Z,15.02
2022-12-03T07:06:51.662Z,8.15
2022-12-03T07:10:53.659Z,11.23
2022-12-03T07:14:55.866Z,12.98
2022-12-03T07:18:57.982Z,15.88
2022-12-03T07:22:59.854Z,11.98
2022-12-03T07:27:01.647Z,12.95
2022-12-03T07:31:03.545Z,13.75
2022-12-03T07:35:07.510Z,12.55
2022-12-03T07:39:09.317Z,12.68
2022-12-03T07:43:11.289Z,12.95
2022-12-03T07:47:13.148Z,14.18
2022-12-03T07:51:15.575Z,13.77
2022-12-03T07:55:18.111Z,12.05
2022-12-03T07:59:21.468Z,13.68
2022-12-03T08:03:23.709Z,12.57
2022-12-03T08:07:25.503Z,16.95
2022-12-03T08:11:29.074Z,15.75
2022-12-03T08:15:38.513Z,13.32
2022-12-03T08:19:46.349Z,14.35
2022-12-03T08:27:51.432Z,10.77
2022-12-03T08:31:57.262Z,10.35
2022-12-03T08:36:01.906Z,14.10
2022-12-03T08:40:32.783Z,14.65
2022-12-03T08:44:40.995Z,15.13
2022-12-03T08:48:48.345Z,14.30
2022-12-03T08:52:52.803Z,15.80
2022-12-03T08:56:54.974Z,15.90
2022-12-03T09:01:08.620Z,11.63
2022-12-03T09:05:18.237Z,11.98
2022-12-03T09:09:21.083Z,12.70
2022-12-03T09:13:22.909Z,11.65
2022-12-03T09:17:24.755Z,12.55
2022-12-03T09:21:26.486Z,9.85
2022-12-03T09:25:28.251Z,11.57
2022-12-03T09:29:30.033Z,9.27
2022-12-03T09:33:32.531Z,12.27
2022-12-03T09:37:34.328Z,11.32
2022-12-03T09:41:36.300Z,11.60
2022-12-03T09:45:38.400Z,10.70
2022-12-03T09:49:41.072Z,8.48
2022-12-03T09:53:42.960Z,12.40
2022-12-03T09:57:44.849Z,11.82
2022-12-03T10:01:46.976Z,14.10
2022-12-03T10:05:48.891Z,14.93
2022-12-03T10:09:51.562Z,11.27
2022-12-03T10:13:55.228Z,10.32
2022-12-03T10:17:58.424Z,11.50
2022-12-03T10:22:00.290Z,9.52
2022-12-03T10:26:03.570Z,7.35
2022-12-03T10:30:19.712Z,13.80
2022-12-03T10:34:35.255Z,11.60
2022-12-03T10:38:37.242Z,13.15
2022-12-03T10:42:40.856Z,10.43
2022-12-03T10:46:42.891Z,9.38
2022-12-03T10:50:50.960Z,10.95
2022-12-03T10:54:53.072Z,12.18
2022-12-03T10:58:55.408Z,6.43
2022-12-03T11:02:57.547Z,9.13
2022-12-03T11:07:01.932Z,8.02
2022-12-03T11:11:15.867Z,6.72
2022-12-03T11:15:44.395Z,8.27
2022-12-03T11:19:47.725Z,9.07
2022-12-03T11:23:49.524Z,9.15
2022-12-03T11:28:12.961Z,8.55
2022-12-03T11:32:39.764Z,6.47
2022-12-03T11:37:09.688Z,8.87
2022-12-03T11:41:13.004Z,8.02
2022-12-03T11:45:33.975Z,9.90
2022-12-03T11:49:38.459Z,12.05
2022-12-03T11:53:40.614Z,9.60
2022-12-03T11:57:43.392Z,11.02
2022-12-03T12:01:46.304Z,11.93
2022-12-03T12:06:03.320Z,10.35
2022-12-03T12:10:05.889Z,9.90
2022-12-03T12:14:13.075Z,12.95
2022-12-03T12:18:43.878Z,9.43
2022-12-03T12:22:45.643Z,9.55
2022-12-03T12:26:51.637Z,8.48
2022-12-03T12:30:53.450Z,8.63
2022-12-03T12:35:03.737Z,7.55
2022-12-03T12:39:16.077Z,14.75
2022-12-03T12:43:24.321Z,9.02
2022-12-03T12:47:30.107Z,9.93
2022-12-03T12:51:32.094Z,8.82
2022-12-03T12:55:37.706Z,7.78
2022-12-03T12:59:39.633Z,9.45
2022-12-03T13:03:41.445Z,8.85
2022-12-03T13:07:44.579Z,6.60
2022-12-03T13:11:52.712Z,9.65
2022-12-03T13:16:01.082Z,12.13
2022-12-03T13:20:14.629Z,10.70
2022-12-03T13:24:28.883Z,8.20
2022-12-03T13:28:31.362Z,9.88
2022-12-03T13:32:37.777Z,12.98
2022-12-03T13:36:42.873Z,10.73
2022-12-03T13:40:44.720Z,10.63
2022-12-03T13:44:49.104Z,7.88
2022-12-03T13:48:50.910Z,9.45
2022-12-03T13:52:53.136Z,9.85
2022-12-03T13:56:54.893Z,8.18
2022-12-03T14:00:56.828Z,10.07
2022-12-03T14:05:00.648Z,7.05
2022-12-03T14:09:04.083Z,8.20
2022-12-03T14:13:05.891Z,9.02
2022-12-03T14:17:09.598Z,8.13
2022-12-03T14:21:11.418Z,8.73
2022-12-03T14:25:13.442Z,7.70
2022-12-03T14:29:15.183Z,5.50
2022-12-03T14:33:16.943Z,12.20
2022-12-03T14:37:18.848Z,10.15
2022-12-03T14:41:40.825Z,8.25
2022-12-03T14:45:42.667Z,10.15
2022-12-03T14:49:44.521Z,8.82
2022-12-03T14:53:46.270Z,8.50
2022-12-03T14:57:47.990Z,9.85
2022-12-03T15:01:49.952Z,9.02
2022-12-03T15:05:51.757Z,6.65
2022-12-03T15:09:54.016Z,8.82
2022-12-03T15:13:56.145Z,5.97
2022-12-03T15:17:57.957Z,6.72
2022-12-03T15:21:59.772Z,7.03
2022-12-03T15:26:01.581Z,6.35
2022-12-03T15:30:03.950Z,9.57
2022-12-03T15:34:23.198Z,6.47
2022-12-03T15:38:25.317Z,6.63
2022-12-03T15:42:29.619Z,8.38
2022-12-03T15:46:31.689Z,7.22
2022-12-03T15:50:38.502Z,5.45
2022-12-03T15:54:41.813Z,5.82
2022-12-03T15:58:43.670Z,6.80
2022-12-03T16:02:52.247Z,5.03
2022-12-03T16:06:54.620Z,5.90
2022-12-03T16:10:56.352Z,6.97
2022-12-03T16:14:58.100Z,7.20
2022-12-03T16:18:59.951Z,8.60
2022-12-03T16:23:01.727Z,10.20
2022-12-03T16:27:03.592Z,11.95
2022-12-03T16:31:05.573Z,9.90
2022-12-03T16:35:07.785Z,7.25
2022-12-03T16:39:09.632Z,6.50
2022-12-03T16:43:11.420Z,7.20
2022-12-03T16:47:13.199Z,6.72
2022-12-03T16:51:15.273Z,6.32
2022-12-03T16:55:17.122Z,8.27
2022-12-03T16:59:18.887Z,8.52
2022-12-03T17:03:22.004Z,7.30
2022-12-03T17:07:23.788Z,9.88
2022-12-03T17:11:25.546Z,5.75
2022-12-03T17:15:27.285Z,8.07
2022-12-03T17:19:29.352Z,7.75
2022-12-03T17:23:31.244Z,7.65
2022-12-03T17:27:33.051Z,16.60
2022-12-03T17:31:41.424Z,12.68
2022-12-03T17:35:45.571Z,10.25
2022-12-03T17:39:47.691Z,8.30
2022-12-03T17:43:49.620Z,7.22
2022-12-03T17:47:51.415Z,8.00
2022-12-03T17:51:53.214Z,6.15
2022-12-03T17:55:54.995Z,26.17
2022-12-03T17:59:57.264Z,53.05
2022-12-03T18:03:59.327Z,152.55
2022-12-03T18:08:01.305Z,239.65
2022-12-03T18:12:03.223Z,104.18
2022-12-03T18:16:05.430Z,65.65
2022-12-03T18:20:07.729Z,39.30
2022-12-03T18:24:09.760Z,21.55
2022-12-03T18:28:11.819Z,11.45
2022-12-03T18:32:27.815Z,11.10
2022-12-03T18:40:35.678Z,11.23
2022-12-03T18:44:37.432Z,7.70
2022-12-03T18:48:42.165Z,10.20
2022-12-03T18:52:43.896Z,6.32
2022-12-03T18:56:45.688Z,7.35
2022-12-03T19:00:47.541Z,9.32
2022-12-03T19:04:49.505Z,11.23
2022-12-03T19:08:54.401Z,8.93
2022-12-03T19:12:56.339Z,5.72
2022-12-03T19:16:58.202Z,5.72
2022-12-03T19:21:00.047Z,5.72
2022-12-03T19:25:02.594Z,6.57
2022-12-03T19:29:04.481Z,5.40
2022-12-03T19:33:06.203Z,7.60
2022-12-03T19:37:08.054Z,6.82
2022-12-03T19:41:11.605Z,6.15
2022-12-03T19:45:13.360Z,8.85
2022-12-03T19:49:16.752Z,5.88
2022-12-03T19:53:20.138Z,6.93
2022-12-03T19:57:23.679Z,6.35
2022-12-03T20:01:28.089Z,7.82
2022-12-03T20:05:33.302Z,7.07
2022-12-03T20:09:35.333Z,5.03
2022-12-03T20:13:37.235Z,5.47
2022-12-03T20:17:39.508Z,6.90
2022-12-03T20:21:44.371Z,4.65
2022-12-03T20:25:46.095Z,7.78
2022-12-03T20:29:47.947Z,10.63
2022-12-03T20:33:54.090Z,6.05
2022-12-03T20:37:55.995Z,8.10
2022-12-03T20:41:57.864Z,4.90
2022-12-03T20:46:36.270Z,4.35
2022-12-03T20:50:39.083Z,5.43
2022-12-03T20:54:40.841Z,3.65
2022-12-03T20:58:42.621Z,8.85
2022-12-03T21:02:45.247Z,9.25
2022-12-03T21:06:46.998Z,6.68
2022-12-03T21:10:48.736Z,4.50
2022-12-03T21:14:50.509Z,6.25
2022-12-03T21:18:52.433Z,5.30
2022-12-03T21:22:54.182Z,5.90
2022-12-03T21:26:56.027Z,4.20
2022-12-03T21:31:02.981Z,4.95
2022-12-03T21:35:05.182Z,6.32
2022-12-03T21:39:07.726Z,5.90
2022-12-03T21:43:09.513Z,5.20
2022-12-03T21:47:14.311Z,8.07
2022-12-03T21:51:17.993Z,8.57
2022-12-03T21:55:19.745Z,5.03
2022-12-03T21:59:21.702Z,6.88
2022-12-03T22:03:23.541Z,8.45
2022-12-03T22:07:25.364Z,7.10
2022-12-03T22:11:27.119Z,8.43
2022-12-03T22:15:28.908Z,8.13
2022-12-03T22:19:30.656Z,8.68
2022-12-03T22:23:32.949Z,7.45
2022-12-03T22:27:34.841Z,6.38
2022-12-03T22:31:36.782Z,5.55
2022-12-03T22:35:38.825Z,8.70
2022-12-03T22:39:40.622Z,5.43
2022-12-03T22:43:42.884Z,6.40
2022-12-03T22:47:44.665Z,7.13
2022-12-03T22:51:47.068Z,6.20
2022-12-03T22:55:56.969Z,4.82
2022-12-03T22:59:58.740Z,4.03
2022-12-03T23:04:01.147Z,5.72
2022-12-03T23:08:05.868Z,4.80
2022-12-03T23:12:08.001Z,3.72
2022-12-03T23:16:16.591Z,8.13
2022-12-03T23:20:19.064Z,7.35
2022-12-03T23:24:20.920Z,7.90
2022-12-03T23:28:22.799Z,15.70
2022-12-03T23:32:24.592Z,7.65
2022-12-03T23:36:28.403Z,6.72
2022-12-03T23:40:30.405Z,4.80
2022-12-03T23:44:32.206Z,4.80
2022-12-03T23:48:34.310Z,3.60
2022-12-03T23:52:36.654Z,6.03
2022-12-03T23:56:39.530Z,5.15
